createdAt,value
2023-01-15T00:05:20.708Z,5.9
2023-01-15T00:12:53.037Z,5.4
2023-01-15T00:20:25.364Z,5.6
2023-01-15T00:27:57.747Z,5.5
2023-01-15T00:35:30.081Z,5.4
2023-01-15T00:43:02.390Z,4.6
2023-01-15T00:50:34.689Z,7.1
2023-01-15T00:58:07.006Z,5.4
2023-01-15T01:05:39.329Z,5.4
2023-01-15T01:13:11.664Z,4.8
2023-01-15T01:20:44.010Z,4.0
2023-01-15T01:28:16.479Z,4.6
2023-01-15T01:35:48.827Z,5.2
2023-01-15T01:43:21.137Z,5.9
2023-01-15T01:50:53.458Z,4.3
2023-01-15T01:58:25.801Z,4.7
2023-01-15T02:05:58.123Z,4.6
2023-01-15T02:13:30.501Z,4.6
2023-01-15T02:21:02.871Z,5.3
2023-01-15T02:28:35.200Z,3.8
2023-01-15T02:36:07.533Z,5.4
2023-01-15T02:43:39.838Z,5.3
2023-01-15T02:51:12.167Z,4.7
2023-01-15T02:58:44.471Z,4.6
2023-01-15T03:06:16.788Z,5.7
2023-01-15T03:13:49.107Z,4.9
2023-01-15T03:21:21.431Z,4.7
2023-01-15T03:28:53.767Z,4.9
2023-01-15T03:36:26.088Z,4.1
2023-01-15T03:43:58.405Z,3.8
2023-01-15T03:51:30.718Z,4.1
2023-01-15T03:59:03.033Z,4.2
2023-01-15T04:06:35.358Z,4.0
2023-01-15T04:14:07.721Z,3.8
2023-01-15T04:21:40.035Z,4.4
2023-01-15T04:29:12.346Z,3.4
2023-01-15T04:36:44.652Z,3.1
2023-01-15T04:44:16.974Z,3.8
2023-01-15T04:51:49.289Z,3.4
2023-01-15T04:59:21.614Z,4.3
2023-01-15T05:06:53.925Z,4.1
2023-01-15T05:14:26.227Z,4.6
2023-01-15T05:21:58.552Z,4.6
2023-01-15T05:29:30.864Z,4.6
2023-01-15T05:37:03.174Z,3.6
2023-01-15T05:44:35.490Z,4.0
2023-01-15T05:52:07.808Z,3.1
2023-01-15T05:59:40.108Z,3.0
2023-01-15T06:07:12.408Z,4.5
2023-01-15T06:14:44.944Z,3.8
2023-01-15T06:22:17.241Z,3.4
2023-01-15T06:29:49.573Z,4.4
2023-01-15T06:37:21.901Z,4.0
2023-01-15T06:44:54.227Z,4.6
2023-01-15T06:52:26.576Z,3.9
2023-01-15T06:59:58.913Z,4.7
2023-01-15T07:07:31.233Z,4.6
2023-01-15T07:15:03.529Z,4.4
2023-01-15T07:22:35.842Z,4.1
2023-01-15T07:30:08.160Z,5.3
2023-01-15T07:37:40.497Z,3.7
2023-01-15T07:45:12.796Z,4.1
2023-01-15T07:52:45.111Z,3.7
2023-01-15T08:00:17.413Z,4.2
2023-01-15T08:07:49.726Z,4.5
2023-01-15T08:15:22.039Z,5.1
2023-01-15T08:22:54.385Z,4.9
2023-01-15T08:30:26.811Z,4.4
2023-01-15T08:37:59.179Z,4.0
2023-01-15T08:45:31.508Z,4.4
2023-01-15T08:53:03.814Z,4.1
2023-01-15T09:00:36.116Z,4.8
2023-01-15T09:08:08.435Z,4.1
2023-01-15T09:15:40.741Z,5.4
2023-01-15T09:23:13.063Z,3.9
2023-01-15T09:30:45.413Z,4.8
2023-01-15T09:38:17.744Z,4.4
2023-01-15T09:45:50.119Z,3.9
2023-01-15T09:53:22.470Z,4.2
2023-01-15T10:00:54.794Z,4.0
2023-01-15T10:08:27.124Z,4.2
2023-01-15T10:15:59.496Z,4.1
2023-01-15T10:23:31.865Z,5.4
2023-01-15T10:31:04.200Z,3.7
2023-01-15T10:38:36.535Z,4.1
2023-01-15T10:46:08.929Z,5.4
2023-01-15T10:53:41.252Z,4.7
2023-01-15T11:01:13.666Z,5.6
2023-01-15T11:09:08.742Z,5.4
2023-01-15T11:16:28.314Z,5.5
2023-01-15T11:24:00.636Z,6.0
2023-01-15T11:31:33.003Z,5.8
2023-01-15T11:39:05.356Z,7.8
2023-01-15T11:46:37.724Z,5.4
2023-01-15T11:54:10.104Z,5.3
2023-01-15T12:01:42.405Z,4.9
2023-01-15T12:09:14.727Z,5.3
2023-01-15T12:16:47.047Z,6.6
2023-01-15T12:24:19.347Z,6.0
2023-01-15T12:31:51.659Z,5.4
2023-01-15T12:39:23.991Z,6.2
2023-01-15T12:46:56.327Z,5.0
2023-01-15T12:54:28.717Z,4.4
2023-01-15T13:02:01.148Z,5.1
2023-01-15T13:09:33.513Z,4.3
2023-01-15T13:17:05.825Z,6.5
2023-01-15T13:24:38.129Z,5.1
2023-01-15T13:32:10.443Z,5.4
2023-01-15T13:39:42.756Z,4.4
2023-01-15T13:47:15.075Z,4.0
2023-01-15T13:54:47.637Z,4.6
2023-01-15T14:02:19.946Z,4.2
2023-01-15T14:09:52.247Z,5.3
2023-01-15T14:17:24.707Z,5.0
2023-01-15T14:24:57.024Z,4.8
2023-01-15T14:32:29.339Z,4.8
2023-01-15T14:40:01.649Z,4.4
2023-01-15T14:47:34.051Z,4.0
2023-01-15T14:55:06.370Z,4.9
2023-01-15T15:02:38.736Z,4.4
2023-01-15T15:10:11.064Z,5.3
2023-01-15T15:17:43.385Z,4.2
2023-01-15T15:25:15.735Z,4.7
2023-01-15T15:32:48.098Z,4.1
2023-01-15T15:40:20.426Z,4.8
2023-01-15T15:47:52.765Z,5.8
2023-01-15T15:55:25.092Z,6.3
2023-01-15T16:02:57.447Z,5.5
2023-01-15T16:10:29.787Z,5.1
2023-01-15T16:25:42.984Z,5.9
2023-01-15T16:33:15.300Z,5.8
2023-01-15T16:40:47.646Z,5.6
2023-01-15T16:48:19.950Z,5.6
2023-01-15T16:55:52.246Z,6.1
2023-01-15T17:03:24.552Z,5.4
2023-01-15T17:10:56.882Z,6.3
2023-01-15T17:18:29.216Z,6.2
2023-01-15T17:26:01.536Z,5.6
2023-01-15T17:33:33.847Z,6.8
2023-01-15T17:41:06.181Z,7.3
2023-01-15T17:48:38.504Z,6.5
2023-01-15T17:56:10.793Z,6.8
2023-01-15T18:03:43.128Z,6.8
2023-01-15T18:11:15.452Z,7.2
2023-01-15T18:18:47.765Z,6.7
2023-01-15T18:26:20.122Z,6.5
2023-01-15T18:33:52.421Z,5.8
2023-01-15T18:41:24.751Z,5.3
2023-01-15T18:48:57.096Z,6.4
2023-01-15T18:56:29.430Z,6.1
2023-01-15T19:04:01.728Z,6.7
2023-01-15T19:11:34.086Z,7.1
2023-01-15T19:19:06.514Z,5.5
2023-01-15T19:26:38.812Z,6.6
2023-01-15T19:34:32.654Z,7.4
2023-01-15T19:41:53.400Z,6.0
2023-01-15T19:49:25.720Z,5.9
2023-01-15T19:56:58.041Z,5.8
2023-01-15T20:04:30.341Z,6.4
2023-01-15T20:12:02.671Z,5.5
2023-01-15T20:19:35.003Z,5.2
2023-01-15T20:27:07.323Z,5.9
2023-01-15T20:34:39.646Z,6.3
2023-01-15T20:42:11.973Z,7.3
2023-01-15T20:49:44.278Z,6.6
2023-01-15T20:57:16.604Z,5.4
2023-01-15T21:04:48.924Z,6.0
2023-01-15T21:12:21.238Z,6.2
2023-01-15T21:19:53.563Z,6.0
2023-01-15T21:27:25.885Z,5.8
2023-01-15T21:34:58.197Z,6.5
2023-01-15T21:42:30.527Z,6.1
2023-01-15T21:50:02.831Z,6.4
2023-01-15T21:57:35.143Z,4.8
2023-01-15T22:05:07.441Z,6.3
2023-01-15T22:12:39.740Z,6.7
2023-01-15T22:20:12.039Z,5.2
2023-01-15T22:27:44.363Z,7.0
2023-01-15T22:35:16.683Z,7.9
2023-01-15T22:42:49.008Z,6.0
2023-01-15T22:50:21.332Z,6.3
2023-01-15T22:57:53.636Z,6.5
2023-01-15T23:05:25.957Z,8.3
2023-01-15T23:12:58.280Z,7.2
2023-01-15T23:20:30.586Z,6.8
2023-01-15T23:28:02.891Z,7.0
2023-01-15T23:35:35.196Z,9.9
2023-01-15T23:43:07.508Z,8.9
2023-01-15T23:50:39.831Z,8.2
2023-01-15T23:58:12.149Z,8.1
